Time;durP1;ratioP1;P1;durP2;ratioP2;P2;SDS_P1;SDS_P2;PMS_P1;PMS_P2;Temp;Humidity;BMP_temperature;BMP_pressure;BME280_temperature;BME280_humidity;BME280_pressure;Samples;Min_cycle;Max_cycle;Signal;HPM_P1;HPM_P2
2021/07/20 00:01:13;;;;;;;;;;;;;;;19.74;100.00;98910.02;1634749;88;20108;-72
2021/07/20 00:03:41;;;;;;;;;;;;;;;19.74;100.00;98901.86;1634785;87;20195;-72
2021/07/20 00:06:09;;;;;;;;;;;;;;;19.75;100.00;98896.66;1634930;88;20104;-74
2021/07/20 00:08:35;;;;;;;;;;;;;;;19.76;100.00;98902.90;1634791;88;21316;-72
2021/07/20 00:11:03;;;;;;;;;;;;;;;19.76;100.00;98899.61;1634654;86;20156;-72
2021/07/20 00:13:30;;;;;;;;;;;;;;;19.73;100.00;98897.55;1634815;86;20167;-72
2021/07/20 00:15:58;;;;;;;;;;;;;;;19.73;100.00;98908.44;1634878;88;20203;-72
2021/07/20 00:18:27;;;;;;;;;;;;;;;19.72;100.00;98915.03;1635079;86;20167;-73
2021/07/20 00:20:56;;;;;;;;;;;;;;;19.74;100.00;98916.04;1634862;88;21156;-73
2021/07/20 00:23:24;;;;;;;;;;;;;;;19.74;100.00;98917.41;1612838;88;20684;-73
2021/07/20 00:25:51;;;;;;;;;;;;;;;19.76;100.00;98919.23;1612936;87;20479;-73
2021/07/20 00:28:18;;;;;;;;;;;;;;;19.78;100.00;98918.34;1635169;88;20104;-72
2021/07/20 00:30:46;;;;;;;;;;;;;;;19.77;100.00;98909.39;1634986;88;20084;-73
2021/07/20 00:33:13;;;;;;;;;;;;;;;19.78;100.00;98915.05;1638213;85;21897;-74
2021/07/20 00:35:40;;;;;;;;;;;;;;;19.80;100.00;98909.29;1665357;86;20169;-73
2021/07/20 00:38:11;;;;;;;;;;;;;;;19.80;100.00;98912.80;1666037;86;20253;-73
2021/07/20 00:40:40;;;;;;;;;;;;;;;19.81;100.00;98914.39;1665465;86;20215;-72
2021/07/20 00:43:14;;;;;;;;;;;;;;;19.82;100.00;98923.34;1665596;86;20077;-74
2021/07/20 00:45:43;;;;;;;;;;;;;;;19.82;100.00;98917.90;1665715;85;21453;-74
2021/07/20 00:48:10;;;;;;;;;;;;;;;19.83;100.00;98927.11;1665755;86;20284;-72
2021/07/20 00:50:41;;;;;;;;;;;;;;;19.82;100.00;98932.34;1665458;86;20202;-72
2021/07/20 00:53:10;;;;;;;;;;;;;;;19.82;100.00;98934.23;1665901;86;20149;-73
2021/07/20 00:55:39;;;;;;;;;;;;;;;19.80;100.00;98931.86;1665488;86;20169;-72
2021/07/20 00:58:08;;;;;;;;;;;;;;;19.80;100.00;98921.55;1665552;86;22088;-72
2021/07/20 01:00:35;;;;;;;;;;;;;;;19.79;100.00;98908.47;1665692;86;20109;-73
2021/07/20 01:03:06;;;;;;;;;;;;;;;19.79;100.00;98905.74;1665027;86;20192;-72
2021/07/20 01:05:34;;;;;;;;;;;;;;;19.78;100.00;98900.64;1665080;86;20590;-71
2021/07/20 01:08:05;;;;;;;;;;;;;;;19.76;100.00;98901.54;1665541;86;20094;-72
2021/07/20 01:10:33;;;;;;;;;;;;;;;19.69;100.00;98909.65;1665858;86;21117;-73
2021/07/20 01:13:01;;;;;;;;;;;;;;;19.66;100.00;98914.38;1664828;86;20537;-72
2021/07/20 01:15:28;;;;;;;;;;;;;;;19.64;100.00;98921.27;1665199;86;20150;-72
2021/07/20 01:17:56;;;;;;;;;;;;;;;19.59;100.00;98921.46;1665568;86;20085;-70
2021/07/20 01:20:26;;;;;;;;;;;;;;;19.54;100.00;98927.09;1642880;86;20154;-71
2021/07/20 01:23:18;;;;;;;;;;;;;;;19.48;100.00;98925.13;1665326;86;21845;-71
2021/07/20 01:25:42;;;;;;;;;;;;;;;19.43;100.00;98932.91;1664766;84;20098;-69
2021/07/20 01:28:17;;;;;;;;;;;;;;;19.36;100.00;98933.98;1664878;86;20440;-66
2021/07/20 01:30:43;;;;;;;;;;;;;;;19.30;100.00;98931.20;1645533;86;20468;-68
2021/07/20 01:33:12;;;;;;;;;;;;;;;19.23;100.00;98939.06;1665485;86;20154;-71
2021/07/20 01:35:41;;;;;;;;;;;;;;;19.14;100.00;98943.77;1665352;86;21088;-72
2021/07/20 01:38:11;;;;;;;;;;;;;;;19.09;100.00;98948.81;1665185;86;20176;-75
2021/07/20 01:40:54;;;;;;;;;;;;;;;19.04;100.00;98955.79;1644078;86;20212;-77
2021/07/20 01:43:50;;;;;;;;;;;;;;;19.00;100.00;98950.75;1643724;86;20105;-76
2021/07/20 01:47:15;;;;;;;;;;;;;;;18.94;100.00;98962.38;1663873;85;20189;-77
2021/07/20 01:49:38;;;;;;;;;;;;;;;18.88;100.00;98968.30;1663194;85;21087;-73
2021/07/20 01:52:08;;;;;;;;;;;;;;;18.81;100.00;98967.42;1665206;86;20437;-72
2021/07/20 01:54:38;;;;;;;;;;;;;;;18.75;100.00;98963.26;1665452;86;20177;-74
2021/07/20 01:57:07;;;;;;;;;;;;;;;18.71;100.00;98961.73;1665438;86;20232;-74
2021/07/20 01:59:53;;;;;;;;;;;;;;;18.65;100.00;98958.95;1665431;86;20093;-72
2021/07/20 02:02:36;;;;;;;;;;;;;;;18.60;100.00;98963.98;1662030;86;21554;-72
2021/07/20 02:10:38;;;;;;;;;;;;;;;18.51;100.00;98953.68;1642994;86;20527;-73
2021/07/20 02:13:16;;;;;;;;;;;;;;;18.50;100.00;98944.51;1642632;85;20102;-72
2021/07/20 02:15:46;;;;;;;;;;;;;;;18.45;100.00;98944.11;1664898;85;20106;-71
2021/07/20 02:18:30;;;;;;;;;;;;;;;18.42;100.00;98940.11;1665648;86;20121;-72
2021/07/20 02:21:05;;;;;;;;;;;;;;;18.40;100.00;98930.69;1643573;86;20098;-72
2021/07/20 02:23:34;;;;;;;;;;;;;;;18.38;100.00;98916.63;1664125;85;20118;-72
2021/07/20 02:26:00;;;;;;;;;;;;;;;18.35;100.00;98917.27;1665383;86;20089;-69
2021/07/20 02:28:27;;;;;;;;;;;;;;;18.31;100.00;98926.60;1665640;86;21115;-70
2021/07/20 02:30:54;;;;;;;;;;;;;;;18.26;100.00;98928.69;1665284;86;20463;-70
2021/07/20 02:33:20;;;;;;;;;;;;;;;18.23;100.00;98926.59;1644105;86;20456;-69
2021/07/20 02:35:47;;;;;;;;;;;;;;;18.18;100.00;98918.86;1637352;86;20140;-68
2021/07/20 02:38:22;;;;;;;;;;;;;;;18.15;100.00;98919.51;1634375;86;20121;-68
2021/07/20 02:40:50;;;;;;;;;;;;;;;18.10;100.00;98920.99;1635184;87;21127;-68
2021/07/20 02:43:18;;;;;;;;;;;;;;;18.04;100.00;98930.43;1634931;87;20796;-68
2021/07/20 02:45:46;;;;;;;;;;;;;;;17.99;100.00;98938.17;1635044;87;20148;-68
2021/07/20 02:48:13;;;;;;;;;;;;;;;17.95;100.00;98941.27;1634922;86;20107;-69
2021/07/20 02:50:42;;;;;;;;;;;;;;;17.92;100.00;98934.33;1635027;87;20434;-68
2021/07/20 02:53:16;;;;;;;;;;;;;;;17.90;100.00;98929.20;1633849;86;21157;-66
2021/07/20 02:55:57;;;;;;;;;;;;;;;17.88;100.00;98923.29;1634583;88;20147;-72
2021/07/20 02:58:25;;;;;;;;;;;;;;;17.85;100.00;98927.21;1613684;87;33823;-68
2021/07/20 03:00:55;;;;;;;;;;;;;;;17.82;100.00;98925.14;1635009;86;20104;-69
2021/07/20 03:03:22;;;;;;;;;;;;;;;17.79;100.00;98922.47;1634762;87;20119;-67
2021/07/20 03:05:51;;;;;;;;;;;;;;;17.75;100.00;98914.14;1635134;86;21141;-67
2021/07/20 03:08:17;;;;;;;;;;;;;;;17.73;100.00;98910.15;1634806;86;20139;-67
2021/07/20 03:10:47;;;;;;;;;;;;;;;17.70;100.00;98906.16;1633602;88;20104;-69
2021/07/20 03:13:14;;;;;;;;;;;;;;;17.70;100.00;98913.50;1634845;87;20104;-68
2021/07/20 03:15:45;;;;;;;;;;;;;;;17.70;100.00;98906.16;1634609;88;20444;-68
2021/07/20 03:18:12;;;;;;;;;;;;;;;17.70;100.00;98909.43;1635064;86;21224;-69
2021/07/20 03:20:40;;;;;;;;;;;;;;;17.72;100.00;98909.92;1635581;86;20100;-68
2021/07/20 03:23:09;;;;;;;;;;;;;;;17.70;100.00;98919.72;1634853;87;20136;-68
2021/07/20 03:25:35;;;;;;;;;;;;;;;17.71;100.00;98925.41;1634889;87;20191;-68
2021/07/20 03:28:02;;;;;;;;;;;;;;;17.72;100.00;98922.13;1635482;86;20148;-69
2021/07/20 03:30:31;;;;;;;;;;;;;;;17.74;100.00;98934.27;1635115;87;20540;-67
2021/07/20 03:33:03;;;;;;;;;;;;;;;17.76;100.00;98944.27;1634731;87;20112;-68
2021/07/20 03:35:45;;;;;;;;;;;;;;;17.81;100.00;98950.67;1657807;86;20116;-67
2021/07/20 03:38:13;;;;;;;;;;;;;;;17.88;100.00;98952.36;1664736;86;20138;-69
2021/07/20 03:40:42;;;;;;;;;;;;;;;17.95;100.00;98949.98;1665689;86;20149;-68
2021/07/20 03:43:08;;;;;;;;;;;;;;;18.00;100.00;98951.97;1665470;86;21149;-68
2021/07/20 03:45:36;;;;;;;;;;;;;;;18.06;100.00;98940.42;1643324;86;20118;-68
2021/07/20 03:48:03;;;;;;;;;;;;;;;18.15;100.00;98932.27;1665090;86;20444;-68
2021/07/20 03:50:34;;;;;;;;;;;;;;;18.28;100.00;98929.17;1664839;86;20149;-68
2021/07/20 03:53:01;;;;;;;;;;;;;;;18.44;100.00;98923.47;1665556;86;20462;-68
2021/07/20 03:55:28;;;;;;;;;;;;;;;18.58;100.00;98928.17;1664920;86;21146;-68
2021/07/20 03:57:55;;;;;;;;;;;;;;;18.72;100.00;98928.57;1665641;86;20424;-68
2021/07/20 04:00:23;;;;;;;;;;;;;;;18.76;100.00;98927.61;1665757;86;20153;-68
2021/07/20 04:03:21;;;;;;;;;;;;;;;18.82;100.00;98925.54;1665493;85;20105;-68
2021/07/20 04:05:37;;;;;;;;;;;;;;;18.93;100.00;98932.20;1650450;86;20161;-67
2021/07/20 04:08:05;;;;;;;;;;;;;;;19.08;100.00;98934.17;1665605;86;21154;-68
2021/07/20 04:10:37;;;;;;;;;;;;;;;19.25;100.00;98940.34;1664012;84;20196;-68
2021/07/20 04:13:10;;;;;;;;;;;;;;;19.46;100.00;98942.34;1644198;86;20089;-68
2021/07/20 04:15:55;;;;;;;;;;;;;;;19.61;100.00;98945.86;1665263;86;20162;-69
2021/07/20 04:18:23;;;;;;;;;;;;;;;19.70;100.00;98957.55;1643543;86;20105;-69
2021/07/20 04:20:50;;;;;;;;;;;;;;;19.83;100.00;98952.98;1665656;86;21140;-68
2021/07/20 04:23:22;;;;;;;;;;;;;;;19.95;100.00;98948.19;1664556;86;20571;-69
2021/07/20 04:25:53;;;;;;;;;;;;;;;20.06;100.00;98956.75;1663736;86;20077;-69
2021/07/20 04:28:24;;;;;;;;;;;;;;;20.13;100.00;98963.84;1664967;86;20109;-69
2021/07/20 04:30:52;;;;;;;;;;;;;;;20.24;100.00;98973.80;1666045;86;20142;-68
2021/07/20 04:33:25;;;;;;;;;;;;;;;20.27;100.00;98982.66;1665770;86;21150;-69
2021/07/20 04:36:04;;;;;;;;;;;;;;;20.27;100.00;98982.66;1653506;85;20101;-69
2021/07/20 04:38:32;;;;;;;;;;;;;;;20.29;100.00;98985.86;1665959;86;20101;-69
2021/07/20 04:41:00;;;;;;;;;;;;;;;20.41;100.00;98983.20;1666040;86;20105;-69
2021/07/20 04:43:27;;;;;;;;;;;;;;;20.58;100.00;98982.83;1665895;86;20081;-70
2021/07/20 04:45:54;;;;;;;;;;;;;;;20.65;100.00;98974.91;1666075;86;21782;-70
2021/07/20 04:48:22;;;;;;;;;;;;;;;20.63;100.00;98968.45;1665927;86;20473;-71
2021/07/20 04:50:52;;;;;;;;;;;;;;;20.66;100.00;98972.44;1665366;84;20129;-70
2021/07/20 04:53:19;;;;;;;;;;;;;;;20.69;100.00;98969.03;1665838;86;20087;-70
2021/07/20 04:55:48;;;;;;;;;;;;;;;20.71;100.00;98966.77;1665862;86;20089;-70
2021/07/20 04:58:15;;;;;;;;;;;;;;;20.80;100.00;98964.77;1644938;86;21235;-71
2021/07/20 05:00:51;;;;;;;;;;;;;;;21.01;100.00;98970.15;1643623;86;20106;-71
2021/07/20 05:03:20;;;;;;;;;;;;;;;21.19;100.00;98970.75;1665873;86;20097;-70
2021/07/20 05:05:48;;;;;;;;;;;;;;;21.19;100.00;98969.38;1665991;86;20122;-71
2021/07/20 05:08:17;;;;;;;;;;;;;;;21.29;100.00;98973.61;1665775;86;20105;-70
2021/07/20 05:10:52;;;;;;;;;;;;;;;21.39;100.00;98973.22;1665630;86;21129;-71
2021/07/20 05:13:22;;;;;;;;;;;;;;;21.57;100.00;98973.79;1665191;84;20451;-69
2021/07/20 05:15:57;;;;;;;;;;;;;;;21.70;100.00;98974.58;1666187;86;20172;-69
2021/07/20 05:18:25;;;;;;;;;;;;;;;22.00;100.00;98980.61;1665906;86;20102;-70
2021/07/20 05:20:57;;;;;;;;;;;;;;;22.41;100.00;98980.08;1644914;86;20182;-70
2021/07/20 05:23:24;;;;;;;;;;;;;;;22.60;100.00;98980.23;1643370;86;21168;-69
2021/07/20 05:25:54;;;;;;;;;;;;;;;22.66;100.00;98985.70;1664619;86;20106;-68
2021/07/20 05:28:24;;;;;;;;;;;;;;;22.71;100.00;98978.37;1665445;86;20110;-68
2021/07/20 05:30:55;;;;;;;;;;;;;;;22.74;100.00;98983.16;1665939;86;20385;-68
2021/07/20 05:33:24;;;;;;;;;;;;;;;22.99;100.00;98986.02;1665799;86;20150;-69
2021/07/20 05:36:01;;;;;;;;;;;;;;;23.24;100.00;98979.03;1647067;84;20635;-69
2021/07/20 05:38:30;;;;;;;;;;;;;;;23.27;100.00;98979.14;1634129;88;20470;-70
2021/07/20 05:41:00;;;;;;;;;;;;;;;23.38;100.00;98978.61;1630712;88;20172;-70
2021/07/20 05:43:28;;;;;;;;;;;;;;;23.61;100.00;98978.19;1633671;88;20647;-71
2021/07/20 05:46:00;;;;;;;;;;;;;;;23.70;100.00;98982.91;1634500;88;20155;-72
2021/07/20 05:48:28;;;;;;;;;;;;;;;23.68;100.00;98983.84;1611512;87;21171;-70
2021/07/20 05:51:01;;;;;;;;;;;;;;;23.80;100.00;98983.55;1634256;86;20440;-75
2021/07/20 05:53:31;;;;;;;;;;;;;;;24.02;100.00;98984.26;1633555;87;20152;-72
2021/07/20 05:56:02;;;;;;;;;;;;;;;24.02;100.00;98988.37;1635552;86;20846;-75
2021/07/20 05:58:30;;;;;;;;;;;;;;;24.16;100.00;98988.69;1636171;86;20218;-72
2021/07/20 06:01:34;;;;;;;;;;;;;;;24.34;100.00;98990.44;1638702;86;21522;-74
2021/07/20 06:04:05;;;;;;;;;;;;;;;24.45;100.00;98987.94;1597971;85;20152;-73
2021/07/20 06:06:50;;;;;;;;;;;;;;;24.60;100.00;98983.56;1628575;86;20160;-74
2021/07/20 06:09:51;;;;;;;;;;;;;;;24.73;100.00;98985.58;1602509;85;20978;-76
2021/07/20 06:12:23;;;;;;;;;;;;;;;24.78;100.00;98989.39;1573265;89;20847;-71
2021/07/20 06:14:51;;;;;;;;;;;;;;;25.03;100.00;98992.02;1564078;89;21177;-73
2021/07/20 06:17:24;;;;;;;;;;;;;;;24.99;100.00;98997.25;1583564;88;20216;-72
2021/07/20 06:20:26;;;;;;;;;;;;;;;24.70;100.00;98989.84;1587664;89;20293;-77
2021/07/20 06:22:53;;;;;;;;;;;;;;;24.34;100.00;98989.65;1577679;89;20160;-72
2021/07/20 06:26:18;;;;;;;;;;;;;;;24.35;100.00;98992.05;1545897;90;20381;-77
2021/07/20 06:36:20;;;;;;;;;;;;;;;25.23;100.00;98996.95;1510177;91;20422;-76
2021/07/20 06:57:42;;;;;;;;;;;;;;;26.14;100.00;98987.59;1461669;95;20441;-75
2021/07/20 07:00:22;;;;;;;;;;;;;;;26.47;100.00;98989.59;1428118;98;20175;-74
2021/07/20 07:03:10;;;;;;;;;;;;;;;26.69;100.00;98989.89;1401187;100;21180;-76
2021/07/20 07:05:38;;;;;;;;;;;;;;;27.01;100.00;98990.83;1423944;98;20353;-74
2021/07/20 07:08:11;;;;;;;;;;;;;;;27.18;100.00;98994.34;1422104;98;20190;-75
2021/07/20 07:10:39;;;;;;;;;;;;;;;27.26;100.00;98996.01;1420302;99;20567;-75
2021/07/20 07:13:09;;;;;;;;;;;;;;;26.98;100.00;98995.13;1433163;98;20182;-75
2021/07/20 07:15:57;;;;;;;;;;;;;;;26.66;100.00;98993.40;1403791;99;20165;-74
2021/07/20 07:18:34;;;;;;;;;;;;;;;26.67;100.00;98995.75;1419791;99;20210;-74
2021/07/20 07:21:01;;;;;;;;;;;;;;;26.72;100.00;98991.88;1417128;99;20184;-74
2021/07/20 07:23:40;;;;;;;;;;;;;;;26.61;100.00;98990.98;1420453;99;20227;-72
2021/07/20 07:26:18;;;;;;;;;;;;;;;26.67;100.00;98993.00;1405745;99;20121;-73
2021/07/20 07:28:53;;;;;;;;;;;;;;;26.63;100.00;98990.00;1420675;101;21171;-74
2021/07/20 07:31:24;;;;;;;;;;;;;;;26.84;100.00;98988.08;1472197;96;20787;-72
2021/07/20 07:33:51;;;;;;;;;;;;;;;26.88;100.00;98982.83;1520236;92;20205;-71
2021/07/20 07:39:02;;;;;;;;;;;;;;;27.14;98.86;98968.71;1579082;90;20245;-72
2021/07/20 07:41:33;;;;;;;;;;;;;;;27.28;97.81;98969.47;1592357;89;21146;-73
2021/07/20 07:44:01;;;;;;;;;;;;;;;27.61;94.71;98969.14;1590341;88;20211;-72
2021/07/20 07:46:31;;;;;;;;;;;;;;;27.69;95.63;98982.60;1594589;84;20204;-72
2021/07/20 07:49:01;;;;;;;;;;;;;;;28.03;91.80;98985.79;1671300;84;20165;-72
2021/07/20 07:51:27;;;;;;;;;;;;;;;28.32;89.72;98986.17;1670972;85;20125;-72
2021/07/20 07:54:07;;;;;;;;;;;;;;;28.36;85.20;98990.31;1667265;85;21771;-74
2021/07/20 07:56:37;;;;;;;;;;;;;;;28.11;90.54;98981.92;1663373;86;20236;-74
2021/07/20 07:59:06;;;;;;;;;;;;;;;27.83;90.14;98982.52;1654616;86;20724;-74
2021/07/20 08:01:36;;;;;;;;;;;;;;;27.96;90.54;98984.59;1666312;86;20532;-73
2021/07/20 08:04:19;;;;;;;;;;;;;;;28.21;91.75;98981.97;1666197;86;20189;-73
2021/07/20 08:06:37;;;;;;;;;;;;;;;28.42;90.79;98980.50;1667488;84;21195;-74
2021/07/20 08:09:12;;;;;;;;;;;;;;;28.08;80.34;98983.48;1666443;84;20089;-76
2021/07/20 08:11:58;;;;;;;;;;;;;;;;;;;;;
2021/07/20 08:14:28;;;;;;;;;;;;;;;28.27;84.11;98982.41;1671436;85;20240;-77
2021/07/20 08:16:57;;;;;;;;;;;;;;;28.24;84.72;98990.05;1673505;84;20448;-73
2021/07/20 08:19:34;;;;;;;;;;;;;;;28.20;84.36;98992.03;1674342;84;21058;-78
2021/07/20 08:22:08;;;;;;;;;;;;;;;28.35;81.56;98988.16;1672877;84;20164;-74
2021/07/20 08:24:36;;;;;;;;;;;;;;;28.67;83.20;99000.55;1671104;84;20156;-74
2021/07/20 08:27:12;;;;;;;;;;;;;;;28.80;79.14;98999.78;1674602;85;20138;-74
2021/07/20 08:29:43;;;;;;;;;;;;;;;28.38;80.99;99003.14;1674312;84;20120;-75
2021/07/20 08:32:15;;;;;;;;;;;;;;;28.56;85.28;98994.37;1674528;85;21157;-74
2021/07/20 08:34:50;;;;;;;;;;;;;;;28.72;79.35;99000.95;1674401;84;20177;-73
2021/07/20 08:37:18;;;;;;;;;;;;;;;28.63;78.09;98993.02;1670032;82;20112;-75
2021/07/20 08:39:45;;;;;;;;;;;;;;;28.30;79.19;98987.74;1673463;84;20463;-75
2021/07/20 08:42:28;;;;;;;;;;;;;;;28.26;81.97;98986.92;1674017;85;20121;-75
2021/07/20 08:45:09;;;;;;;;;;;;;;;28.54;81.30;98991.80;1674071;85;21211;-75
2021/07/20 08:47:52;;;;;;;;;;;;;;;28.38;77.54;98982.45;1672356;84;20125;-75
2021/07/20 08:50:39;;;;;;;;;;;;;;;27.90;78.56;98972.91;1672089;85;20195;-75
2021/07/20 08:53:45;;;;;;;;;;;;;;;27.36;85.35;98962.84;1662935;84;20164;-73
2021/07/20 08:59:06;;;;;;;;;;;;;;;27.25;78.71;98956.46;1672868;85;21185;-74
2021/07/20 09:01:56;;;;;;;;;;;;;;;27.93;78.09;98955.63;1672370;84;20444;-74
2021/07/20 09:04:44;;;;;;;;;;;;;;;28.35;76.21;98951.49;1673251;84;20160;-76
2021/07/20 09:07:23;;;;;;;;;;;;;;;28.69;74.75;98951.22;1674500;85;20480;-76
2021/07/20 09:10:26;;;;;;;;;;;;;;;;;;;;;
2021/07/20 09:12:49;;;;;;;;;;;;;;;;;;;;;
2021/07/20 09:15:25;;;;;;;;;;;;;;;28.24;77.38;98943.75;1631310;87;20121;-73
2021/07/20 09:18:21;;;;;;;;;;;;;;;28.00;77.51;98955.63;1627441;88;20236;-73
2021/07/20 09:21:03;;;;;;;;;;;;;;;27.86;79.88;98953.60;1630074;88;20143;-75
2021/07/20 09:23:35;;;;;;;;;;;;;;;27.73;76.59;98940.70;1574186;90;20146;-73
2021/07/20 09:26:09;;;;;;;;;;;;;;;27.66;77.59;98937.08;1553950;91;22493;-73
2021/07/20 09:29:12;;;;;;;;;;;;;;;28.26;74.39;98935.88;1573705;89;20185;-73
2021/07/20 09:32:03;;;;;;;;;;;;;;;28.75;74.65;98944.16;1573385;91;20179;-74
2021/07/20 09:35:05;;;;;;;;;;;;;;;28.75;74.22;98939.41;1552778;91;20143;-75
2021/07/20 09:37:58;;;;;;;;;;;;;;;28.65;76.90;98945.70;1572514;88;20170;-76
2021/07/20 09:40:37;;;;;;;;;;;;;;;28.61;75.40;98941.56;1598656;89;22063;-75
2021/07/20 09:43:13;;;;;;;;;;;;;;;28.59;75.30;98931.50;1597774;89;20505;-77
2021/07/20 09:50:05;;;;;;;;;;;;;;;27.86;71.41;98931.55;1600417;89;20214;-75
2021/07/20 09:53:13;;;;;;;;;;;;;;;28.04;70.90;98930.84;1599335;89;20186;-75
2021/07/20 09:56:16;;;;;;;;;;;;;;;28.66;74.11;98931.30;1576477;89;21250;-74
2021/07/20 09:59:14;;;;;;;;;;;;;;;28.98;68.42;98928.60;1597111;89;20187;-72
2021/07/20 10:01:58;;;;;;;;;;;;;;;29.37;68.52;98931.41;1592488;89;20547;-77
2021/07/20 10:04:47;;;;;;;;;;;;;;;29.67;69.34;98929.66;1595856;89;20170;-74
2021/07/20 10:07:46;;;;;;;;;;;;;;;30.39;62.39;98929.45;1541195;92;20163;-74
2021/07/20 10:10:31;;;;;;;;;;;;;;;30.59;65.30;98913.73;1544762;92;21160;-77
2021/07/20 10:13:12;;;;;;;;;;;;;;;30.58;61.01;98923.24;1548066;91;20215;-74
2021/07/20 10:15:59;;;;;;;;;;;;;;;30.44;60.97;98924.88;1548905;91;20184;-74
2021/07/20 10:29:40;;;;;;;;;;;;;;;28.73;63.74;98903.72;1458501;95;20506;-74
2021/07/20 10:32:52;;;;;;;;;;;;;;;28.70;64.99;98909.42;1483605;94;20441;-76
2021/07/20 10:36:07;;;;;;;;;;;;;;;;;;;;;
2021/07/20 10:38:58;;;;;;;;;;;;;;;;;;;;;
2021/07/20 10:41:40;;;;;;;;;;;;;;;29.39;61.31;98919.97;1457655;96;21915;-74
2021/07/20 10:44:37;;;;;;;;;;;;;;;29.81;58.55;98923.28;1415811;99;20295;-74
2021/07/20 10:47:23;;;;;;;;;;;;;;;30.07;60.94;98922.03;1431006;98;20503;-76
2021/07/20 10:50:26;;;;;;;;;;;;;;;29.82;60.36;98919.34;1420943;99;20223;-79
2021/07/20 10:53:17;;;;;;;;;;;;;;;29.66;61.62;98914.83;1439064;99;20183;-76
2021/07/20 10:56:29;;;;;;;;;;;;;;;29.49;64.53;98921.33;1426431;98;22464;-77
2021/07/20 10:59:36;;;;;;;;;;;;;;;29.42;61.43;98915.02;1402009;95;21011;-74
2021/07/20 11:02:47;;;;;;;;;;;;;;;29.20;65.45;98912.29;1492816;95;20207;-74
2021/07/20 11:08:41;;;;;;;;;;;;;;;28.92;67.30;98902.56;1533814;92;20164;-72
2021/07/20 11:11:29;;;;;;;;;;;;;;;29.25;69.82;98907.75;1566202;90;20343;-74
2021/07/20 11:14:05;;;;;;;;;;;;;;;29.30;65.27;98903.80;1615703;87;20093;-74
2021/07/20 11:16:34;;;;;;;;;;;;;;;29.22;64.24;98903.59;1613036;87;20223;-73
2021/07/20 11:19:07;;;;;;;;;;;;;;;29.17;63.03;98899.84;1585589;88;20121;-75
2021/07/20 11:21:37;;;;;;;;;;;;;;;29.49;63.30;98898.43;1615735;88;20217;-75
2021/07/20 11:24:11;;;;;;;;;;;;;;;29.53;64.25;98894.30;1608767;87;20161;-74
2021/07/20 11:27:17;;;;;;;;;;;;;;;;;;;;;
2021/07/20 11:30:10;;;;;;;;;;;;;;;29.32;64.76;98892.33;1580574;90;20121;-76
2021/07/20 11:32:39;;;;;;;;;;;;;;;29.74;64.78;98886.56;1613284;89;20245;-73
2021/07/20 11:35:22;;;;;;;;;;;;;;;29.97;61.26;98886.90;1611055;89;20138;-75
2021/07/20 11:37:57;;;;;;;;;;;;;;;30.29;61.98;98884.62;1562663;90;22517;-75
2021/07/20 11:41:09;;;;;;;;;;;;;;;30.47;57.02;98877.00;1593646;86;20133;-74
2021/07/20 11:44:16;;;;;;;;;;;;;;;30.54;59.66;98870.03;1587321;88;20281;-74
2021/07/20 11:47:04;;;;;;;;;;;;;;;30.79;58.33;98878.77;1567644;90;20278;-76
2021/07/20 11:50:03;;;;;;;;;;;;;;;30.98;56.20;98867.78;1556318;91;20469;-73
2021/07/20 11:52:52;;;;;;;;;;;;;;;30.95;56.94;98863.06;1543959;91;21101;-74
2021/07/20 11:55:41;;;;;;;;;;;;;;;31.10;55.80;98850.66;1531212;93;20403;-76
2021/07/20 11:58:57;;;;;;;;;;;;;;;30.64;53.30;98852.38;1440224;97;20244;-77
2021/07/20 12:01:44;;;;;;;;;;;;;;;30.31;55.46;98847.65;1455267;97;20534;-78
2021/07/20 12:04:55;;;;;;;;;;;;;;;30.71;57.30;98848.17;1486199;93;20174;-77
2021/07/20 12:07:54;;;;;;;;;;;;;;;30.83;55.72;98844.95;1506301;93;21606;-78
2021/07/20 12:10:48;;;;;;;;;;;;;;;30.75;55.03;98828.95;1528269;92;20537;-73
2021/07/20 12:13:30;;;;;;;;;;;;;;;31.00;56.12;98826.61;1530008;93;20166;-75
2021/07/20 12:16:09;;;;;;;;;;;;;;;31.21;55.49;98829.77;1527146;93;20184;-73
2021/07/20 12:18:49;;;;;;;;;;;;;;;31.08;54.55;98831.48;1529436;93;20186;-74
2021/07/20 12:22:21;;;;;;;;;;;;;;;31.24;57.24;98833.73;1521684;93;20188;-76
2021/07/20 12:24:24;;;;;;;;;;;;;;;30.91;52.79;98833.20;1511092;93;20227;-76
2021/07/20 12:27:03;;;;;;;;;;;;;;;30.58;55.48;98829.88;1565591;91;20512;-71
2021/07/20 12:29:52;;;;;;;;;;;;;;;30.13;58.15;98831.09;1563914;91;20226;-76
2021/07/20 12:32:43;;;;;;;;;;;;;;;30.09;57.89;98832.50;1565284;91;20176;-76
2021/07/20 12:35:00;;;;;;;;;;;;;;;29.83;58.74;98833.78;1561546;90;21952;-77
2021/07/20 12:37:46;;;;;;;;;;;;;;;;;;;;;
2021/07/20 12:40:31;;;;;;;;;;;;;;;29.79;61.32;98828.07;1561374;89;20545;-74
2021/07/20 12:46:45;;;;;;;;;;;;;;;29.02;62.88;98824.44;1505145;95;20227;-73
2021/07/20 12:49:13;;;;;;;;;;;;;;;28.72;65.22;98830.36;1504193;95;21150;-72
2021/07/20 12:51:53;;;;;;;;;;;;;;;28.53;65.82;98831.51;1510714;95;20662;-75
2021/07/20 12:54:33;;;;;;;;;;;;;;;;;;;;;
2021/07/20 12:56:54;;;;;;;;;;;;;;;28.45;65.40;98838.17;1416114;96;20208;-73
2021/07/20 12:59:22;;;;;;;;;;;;;;;28.06;65.70;98837.48;1390167;101;20179;-73
2021/07/20 13:01:49;;;;;;;;;;;;;;;27.94;68.76;98833.88;1399789;101;21172;-73
2021/07/20 13:04:17;;;;;;;;;;;;;;;28.03;69.30;98830.77;1397378;101;20219;-74
2021/07/20 13:06:44;;;;;;;;;;;;;;;28.16;67.18;98829.22;1396568;99;20296;-75
2021/07/20 13:09:13;;;;;;;;;;;;;;;27.99;68.15;98828.58;1416125;101;20175;-74
2021/07/20 13:11:45;;;;;;;;;;;;;;;27.94;68.59;98829.73;1413222;101;20383;-74
2021/07/20 13:14:13;;;;;;;;;;;;;;;27.84;70.17;98826.95;1422410;100;21375;-75
2021/07/20 13:17:10;;;;;;;;;;;;;;;27.69;69.10;98822.71;1421470;98;20503;-77
2021/07/20 13:19:46;;;;;;;;;;;;;;;27.54;68.95;98812.80;1433482;96;20241;-73
2021/07/20 13:22:43;;;;;;;;;;;;;;;27.30;72.09;98815.01;1433745;96;20165;-77
2021/07/20 13:29:05;;;;;;;;;;;;;;;27.09;72.22;98816.98;1442726;96;22769;-77
2021/07/20 13:31:49;;;;;;;;;;;;;;;;;;;;;
2021/07/20 13:34:20;;;;;;;;;;;;;;;26.92;74.88;98823.97;1520253;91;20179;-74
2021/07/20 13:37:00;;;;;;;;;;;;;;;26.84;74.51;98825.06;1541583;90;20153;-75
2021/07/20 13:40:18;;;;;;;;;;;;;;;26.71;76.46;98822.41;1541461;90;20829;-75
2021/07/20 13:43:31;;;;;;;;;;;;;;;26.63;79.35;98817.98;1456796;94;20446;-77
2021/07/20 13:50:13;;;;;;;;;;;;;;;26.40;79.06;98816.77;1479627;96;20455;-78
2021/07/20 13:56:55;;;;;;;;;;;;;;;;;;;;;
2021/07/20 13:59:30;;;;;;;;;;;;;;;;;;;;;
2021/07/20 14:02:03;;;;;;;;;;;;;;;26.10;81.55;98832.75;1559335;90;20230;-73
2021/07/20 14:07:59;;;;;;;;;;;;;;;25.95;82.30;98840.63;1478827;95;20239;-75
2021/07/20 14:22:26;;;;;;;;;;;;;;;;;;;;;
2021/07/20 14:24:57;;;;;;;;;;;;;;;24.94;100.00;98842.44;1441704;99;20161;-74
2021/07/20 14:27:27;;;;;;;;;;;;;;;24.68;100.00;98836.33;1451500;99;20606;-72
2021/07/20 14:29:56;;;;;;;;;;;;;;;24.43;100.00;98827.63;1451595;99;20570;-74
2021/07/20 14:32:28;;;;;;;;;;;;;;;24.20;100.00;98837.95;1452085;98;20199;-74
2021/07/20 14:35:00;;;;;;;;;;;;;;;24.01;100.00;98828.38;1451940;99;20234;-72
2021/07/20 14:37:53;;;;;;;;;;;;;;;23.80;100.00;98826.00;1451927;99;21020;-72
2021/07/20 14:40:34;;;;;;;;;;;;;;;23.62;100.00;98830.50;1452223;99;20216;-71
2021/07/20 14:43:08;;;;;;;;;;;;;;;23.41;100.00;98828.07;1540172;91;22031;-71
2021/07/20 14:45:35;;;;;;;;;;;;;;;23.22;100.00;98826.66;1568169;91;20158;-71
2021/07/20 14:48:08;;;;;;;;;;;;;;;22.96;100.00;98829.35;1568389;91;20186;-71
2021/07/20 14:50:38;;;;;;;;;;;;;;;22.74;100.00;98830.77;1567819;90;20195;-71
2021/07/20 14:53:20;;;;;;;;;;;;;;;22.59;100.00;98830.19;1568431;91;20124;-70
2021/07/20 14:55:49;;;;;;;;;;;;;;;22.45;100.00;98827.86;1568150;91;21961;-71
2021/07/20 14:58:27;;;;;;;;;;;;;;;22.24;100.00;98838.45;1567034;91;20222;-72
2021/07/20 15:01:05;;;;;;;;;;;;;;;22.05;100.00;98832.81;1575667;86;20171;-70
2021/07/20 15:03:48;;;;;;;;;;;;;;;21.88;100.00;98835.80;1661977;84;20205;-73
2021/07/20 15:06:24;;;;;;;;;;;;;;;21.70;100.00;98838.81;1662586;86;20121;-72
2021/07/20 15:09:00;;;;;;;;;;;;;;;21.58;100.00;98837.48;1662245;85;21140;-72
2021/07/20 15:11:42;;;;;;;;;;;;;;;21.50;100.00;98837.84;1661555;85;20188;-71